Time;durP1;ratioP1;P1;durP2;ratioP2;P2;SDS_P1;SDS_P2;PMS_P1;PMS_P2;Temp;Humidity;BMP_temperature;BMP_pressure;BME280_temperature;BME280_humidity;BME280_pressure;Samples;Min_cycle;Max_cycle;Signal;HPM_P1;HPM_P2
2021/12/14 00:01:31;;;;;;;5.07;2.90;;;;;;;;;;5061781;28;20028;-57
2021/12/14 00:03:58;;;;;;;4.82;2.50;;;;;;;;;;5060667;28;20671;-57
2021/12/14 00:06:24;;;;;;;3.88;2.33;;;;;;;;;;5064070;28;20041;-57
2021/12/14 00:08:58;;;;;;;4.82;2.50;;;;;;;;;;5061919;28;20211;-57
2021/12/14 00:14:09;;;;;;;6.15;3.45;;;;;;;;;;5058177;28;20029;-57
2021/12/14 00:16:34;;;;;;;5.18;2.97;;;;;;;;;;5053197;28;20466;-57
2021/12/14 00:19:01;;;;;;;4.32;2.70;;;;;;;;;;5052305;28;20048;-57
2021/12/14 00:21:30;;;;;;;4.95;3.03;;;;;;;;;;5052359;28;20542;-57
2021/12/14 00:24:06;;;;;;;5.13;3.20;;;;;;;;;;5052464;28;20029;-57
2021/12/14 00:26:32;;;;;;;4.75;2.95;;;;;;;;;;5052339;28;20036;-58
2021/12/14 00:28:57;;;;;;;4.30;3.03;;;;;;;;;;5052056;28;20067;-57
2021/12/14 00:31:23;;;;;;;5.60;3.53;;;;;;;;;;5052604;28;20060;-57
2021/12/14 00:33:53;;;;;;;4.47;3.00;;;;;;;;;;5058103;28;20029;-57
2021/12/14 00:36:19;;;;;;;4.57;2.83;;;;;;;;;;5052332;28;20055;-58
2021/12/14 00:38:45;;;;;;;4.50;2.63;;;;;;;;;;5052117;28;20033;-57
2021/12/14 00:41:16;;;;;;;5.07;3.17;;;;;;;;;;5052206;28;20028;-58
2021/12/14 00:43:42;;;;;;;5.35;3.25;;;;;;;;;;5053101;28;20385;-58
2021/12/14 00:46:07;;;;;;;5.10;3.00;;;;;;;;;;5052374;28;20021;-58
2021/12/14 00:48:32;;;;;;;3.75;3.05;;;;;;;;;;5052013;28;20517;-58
2021/12/14 00:50:58;;;;;;;5.15;3.05;;;;;;;;;;5051923;28;20029;-57
2021/12/14 00:53:24;;;;;;;4.30;3.05;;;;;;;;;;5052321;28;20029;-58
2021/12/14 00:55:50;;;;;;;7.38;3.65;;;;;;;;;;5052005;28;20139;-57
2021/12/14 00:58:16;;;;;;;7.15;3.50;;;;;;;;;;5052445;28;20079;-58
2021/12/14 01:00:43;;;;;;;4.28;2.97;;;;;;;;;;5051621;28;20448;-57
2021/12/14 01:03:09;;;;;;;5.18;3.50;;;;;;;;;;5051994;28;20052;-58
2021/12/14 01:05:36;;;;;;;4.80;3.35;;;;;;;;;;5036870;28;20116;-58
2021/12/14 01:08:02;;;;;;;3.85;2.65;;;;;;;;;;5032377;28;20025;-58
2021/12/14 01:10:30;;;;;;;5.47;3.80;;;;;;;;;;5032241;28;20022;-58
2021/12/14 01:13:01;;;;;;;6.07;3.35;;;;;;;;;;5033003;28;20041;-58
2021/12/14 01:18:45;;;;;;;5.93;3.33;;;;;;;;;;5036096;28;20048;-58
2021/12/14 01:21:42;;;;;;;5.68;3.58;;;;;;;;;;5035604;28;20042;-57
2021/12/14 01:24:19;;;;;;;5.55;3.58;;;;;;;;;;5035735;28;20075;-58
2021/12/14 01:26:45;;;;;;;5.18;3.30;;;;;;;;;;5035577;28;20037;-58
2021/12/14 01:29:10;;;;;;;3.67;2.92;;;;;;;;;;5035641;28;20093;-58
2021/12/14 01:31:40;;;;;;;6.30;4.07;;;;;;;;;;5036441;28;20501;-57
2021/12/14 01:34:10;;;;;;;7.45;3.42;;;;;;;;;;5060127;28;20361;-60
2021/12/14 01:36:44;;;;;;;5.85;3.40;;;;;;;;;;5055328;28;20044;-58
2021/12/14 01:41:44;;;;;;;5.32;3.60;;;;;;;;;;5054981;28;20083;-57
2021/12/14 01:44:10;;;;;;;4.72;3.63;;;;;;;;;;5055058;28;20040;-57
2021/12/14 01:46:40;;;;;;;7.72;4.28;;;;;;;;;;5054264;28;20445;-58
2021/12/14 01:49:07;;;;;;;6.13;3.90;;;;;;;;;;5055048;28;20036;-58
2021/12/14 01:51:35;;;;;;;9.00;4.32;;;;;;;;;;5054875;28;20044;-57
2021/12/14 01:54:00;;;;;;;7.80;4.30;;;;;;;;;;5055021;28;20083;-58
2021/12/14 01:56:27;;;;;;;5.78;3.92;;;;;;;;;;5054878;28;20053;-59
2021/12/14 01:58:54;;;;;;;10.27;5.05;;;;;;;;;;5054695;28;20035;-58
2021/12/14 02:01:21;;;;;;;7.70;4.40;;;;;;;;;;5054961;28;20488;-58
2021/12/14 02:03:49;;;;;;;9.10;4.60;;;;;;;;;;5054123;28;20124;-58
2021/12/14 02:06:16;;;;;;;7.15;4.35;;;;;;;;;;5044879;28;20075;-58
2021/12/14 02:08:41;;;;;;;9.68;5.30;;;;;;;;;;5054725;28;20040;-58
2021/12/14 02:11:08;;;;;;;8.85;5.38;;;;;;;;;;5054533;28;20033;-58
2021/12/14 02:13:43;;;;;;;6.20;4.63;;;;;;;;;;5055082;28;20016;-59
2021/12/14 02:16:10;;;;;;;6.53;4.70;;;;;;;;;;5054576;28;20037;-58
2021/12/14 02:18:35;;;;;;;9.43;5.13;;;;;;;;;;5054584;28;20090;-58
2021/12/14 02:21:03;;;;;;;7.60;5.13;;;;;;;;;;5054194;28;20037;-57
2021/12/14 02:23:29;;;;;;;7.53;4.68;;;;;;;;;;5054175;28;20041;-57
2021/12/14 02:25:56;;;;;;;7.13;4.63;;;;;;;;;;5053617;28;20021;-58
2021/12/14 02:28:22;;;;;;;7.45;5.60;;;;;;;;;;5054699;28;20032;-58
2021/12/14 02:30:49;;;;;;;9.23;6.07;;;;;;;;;;5053974;28;20041;-57
2021/12/14 02:33:23;;;;;;;7.20;4.97;;;;;;;;;;5053900;28;20040;-58
2021/12/14 02:35:49;;;;;;;6.60;5.28;;;;;;;;;;5054341;28;20025;-58
2021/12/14 02:38:17;;;;;;;6.32;4.82;;;;;;;;;;5054237;28;20389;-58
2021/12/14 02:40:55;;;;;;;7.28;5.05;;;;;;;;;;5069088;28;20040;-57
2021/12/14 02:43:34;;;;;;;7.43;5.63;;;;;;;;;;5054636;28;20037;-58
2021/12/14 02:46:02;;;;;;;8.90;5.20;;;;;;;;;;5054094;28;20037;-58
2021/12/14 02:48:28;;;;;;;8.88;6.07;;;;;;;;;;5054200;28;20033;-57
2021/12/14 02:50:53;;;;;;;8.00;5.72;;;;;;;;;;5053661;28;20134;-58
2021/12/14 02:53:19;;;;;;;7.63;5.50;;;;;;;;;;5053679;28;20452;-58
2021/12/14 02:55:44;;;;;;;7.13;5.30;;;;;;;;;;5053768;28;20484;-57
2021/12/14 02:58:09;;;;;;;7.55;5.90;;;;;;;;;;5054242;28;20039;-58
2021/12/14 03:00:46;;;;;;;8.43;5.85;;;;;;;;;;5053483;28;20435;-58
2021/12/14 03:03:12;;;;;;;10.43;6.45;;;;;;;;;;5053178;28;20045;-58
2021/12/14 03:05:39;;;;;;;10.68;5.95;;;;;;;;;;5038298;28;20025;-57
2021/12/14 03:08:15;;;;;;;9.70;6.72;;;;;;;;;;5033903;28;20380;-57
2021/12/14 03:10:56;;;;;;;8.70;5.60;;;;;;;;;;5034099;28;20045;-57
2021/12/14 03:13:23;;;;;;;7.45;5.82;;;;;;;;;;5053632;28;20041;-58
2021/12/14 03:15:52;;;;;;;9.43;6.32;;;;;;;;;;5053366;28;20031;-58
2021/12/14 03:18:23;;;;;;;6.25;5.05;;;;;;;;;;5053634;28;20034;-57
2021/12/14 03:20:48;;;;;;;;;;;;;;;;;;5053762;28;20071;-58
2021/12/14 03:23:16;;;;;;;7.85;5.93;;;;;;;;;;5053159;28;19944;-57
2021/12/14 03:25:44;;;;;;;9.82;6.28;;;;;;;;;;5053974;28;20025;-57
2021/12/14 03:28:11;;;;;;;9.70;5.82;;;;;;;;;;5053215;28;20033;-58
2021/12/14 03:30:42;;;;;;;10.23;6.80;;;;;;;;;;5053045;28;20501;-58
2021/12/14 03:33:13;;;;;;;9.18;5.68;;;;;;;;;;5053959;28;20048;-58
2021/12/14 03:35:41;;;;;;;8.25;5.93;;;;;;;;;;5052891;28;20040;-57
2021/12/14 03:38:09;;;;;;;12.30;5.93;;;;;;;;;;5052394;28;20036;-58
2021/12/14 03:40:34;;;;;;;9.90;6.03;;;;;;;;;;5053591;28;20094;-59
2021/12/14 03:42:59;;;;;;;8.65;6.00;;;;;;;;;;5052765;28;20116;-58
2021/12/14 03:45:25;;;;;;;11.15;7.20;;;;;;;;;;5052967;28;20025;-58
2021/12/14 03:47:52;;;;;;;9.95;7.18;;;;;;;;;;5053138;28;20029;-58
2021/12/14 03:50:44;;;;;;;9.60;6.72;;;;;;;;;;5052727;28;20485;-58
2021/12/14 03:53:10;;;;;;;10.55;7.07;;;;;;;;;;5051352;28;20455;-57
2021/12/14 03:55:38;;;;;;;7.65;5.75;;;;;;;;;;5053377;28;20033;-60
2021/12/14 03:58:07;;;;;;;10.52;6.97;;;;;;;;;;5052450;28;20064;-58
2021/12/14 04:00:34;;;;;;;10.68;6.50;;;;;;;;;;5052492;28;20060;-58
2021/12/14 04:03:03;;;;;;;7.82;6.10;;;;;;;;;;5052342;28;20671;-58
2021/12/14 04:05:29;;;;;;;8.32;5.97;;;;;;;;;;5038299;28;20422;-58
2021/12/14 04:07:54;;;;;;;11.27;6.97;;;;;;;;;;5032743;28;20072;-58
2021/12/14 04:10:23;;;;;;;10.30;6.50;;;;;;;;;;5033203;28;20108;-58
2021/12/14 04:12:48;;;;;;;10.10;7.88;;;;;;;;;;5032408;28;20045;-58
2021/12/14 04:15:13;;;;;;;12.65;6.63;;;;;;;;;;5032755;28;20044;-58
2021/12/14 04:17:39;;;;;;;9.23;6.95;;;;;;;;;;5032906;28;20068;-58
2021/12/14 04:20:11;;;;;;;9.77;6.88;;;;;;;;;;5032809;28;20449;-58
2021/12/14 04:22:36;;;;;;;11.05;7.47;;;;;;;;;;5032808;28;20116;-58
2021/12/14 04:25:04;;;;;;;9.48;6.60;;;;;;;;;;5032599;28;20053;-58
2021/12/14 04:27:31;;;;;;;8.98;7.28;;;;;;;;;;5032398;28;20120;-58
2021/12/14 04:29:59;;;;;;;10.93;8.02;;;;;;;;;;5050226;28;20090;-58
2021/12/14 04:32:24;;;;;;;11.60;7.20;;;;;;;;;;5051756;28;20401;-58
2021/12/14 04:34:49;;;;;;;13.23;7.40;;;;;;;;;;5052299;28;20058;-57
2021/12/14 04:37:16;;;;;;;11.00;7.32;;;;;;;;;;5052886;28;20021;-57
2021/12/14 04:39:57;;;;;;;12.77;7.65;;;;;;;;;;5052273;28;20402;-57
2021/12/14 04:53:24;;;;;;;10.13;7.70;;;;;;;;;;5056086;28;20060;-58
2021/12/14 04:55:51;;;;;;;10.43;7.63;;;;;;;;;;5056009;28;20039;-57
2021/12/14 04:58:24;;;;;;;11.95;8.18;;;;;;;;;;5056431;28;20037;-58
2021/12/14 05:00:50;;;;;;;10.80;8.57;;;;;;;;;;5053768;28;20124;-58
2021/12/14 05:03:20;;;;;;;11.82;8.60;;;;;;;;;;5054957;28;20128;-58
2021/12/14 05:05:51;;;;;;;11.48;8.55;;;;;;;;;;5038862;28;20032;-58
2021/12/14 05:10:54;;;;;;;10.85;8.57;;;;;;;;;;5035332;28;20021;-57
2021/12/14 05:13:23;;;;;;;11.82;8.48;;;;;;;;;;5035719;28;20029;-58
2021/12/14 05:15:48;;;;;;;9.93;7.93;;;;;;;;;;5040768;28;20043;-58
2021/12/14 05:18:14;;;;;;;9.95;7.35;;;;;;;;;;5055444;28;20116;-58
2021/12/14 05:20:41;;;;;;;11.73;8.90;;;;;;;;;;5055504;28;20037;-58
2021/12/14 05:23:06;;;;;;;13.10;9.70;;;;;;;;;;5055081;28;20029;-58
2021/12/14 05:25:32;;;;;;;14.90;9.65;;;;;;;;;;5055629;28;20028;-58
2021/12/14 05:27:59;;;;;;;12.80;8.82;;;;;;;;;;5073787;28;20066;-58
2021/12/14 05:30:27;;;;;;;11.60;8.38;;;;;;;;;;5060803;28;20374;-58
2021/12/14 05:33:13;;;;;;;12.60;8.85;;;;;;;;;;5054972;28;20413;-58
2021/12/14 05:35:39;;;;;;;12.57;9.35;;;;;;;;;;5039275;28;20029;-58
2021/12/14 05:38:09;;;;;;;13.48;8.98;;;;;;;;;;5034812;28;20049;-58
2021/12/14 05:43:07;;;;;;;13.75;9.98;;;;;;;;;;5035730;28;20493;-58
2021/12/14 05:45:34;;;;;;;13.65;9.50;;;;;;;;;;5055323;28;20045;-58
2021/12/14 05:47:59;;;;;;;11.10;8.88;;;;;;;;;;5054807;28;20060;-58
2021/12/14 05:50:32;;;;;;;13.18;9.02;;;;;;;;;;5051974;28;20060;-57
2021/12/14 05:52:58;;;;;;;12.52;9.30;;;;;;;;;;5034760;28;20112;-58
2021/12/14 05:55:25;;;;;;;9.20;7.95;;;;;;;;;;5035252;28;20194;-58
2021/12/14 05:57:52;;;;;;;11.68;8.02;;;;;;;;;;5067328;28;20037;-57
2021/12/14 06:00:17;;;;;;;11.63;8.10;;;;;;;;;;5033970;28;20030;-58
2021/12/14 06:02:43;;;;;;;10.18;7.40;;;;;;;;;;5034289;28;20045;-58
2021/12/14 06:05:13;;;;;;;10.00;7.78;;;;;;;;;;5057902;28;20026;-58
2021/12/14 06:07:38;;;;;;;9.93;7.53;;;;;;;;;;5055372;28;20082;-58
2021/12/14 06:10:04;;;;;;;8.90;6.43;;;;;;;;;;5054821;28;20443;-57
2021/12/14 06:12:31;;;;;;;8.27;5.70;;;;;;;;;;5067219;28;20040;-57
2021/12/14 06:14:58;;;;;;;8.75;6.68;;;;;;;;;;5071113;28;20504;-58
2021/12/14 06:17:29;;;;;;;8.48;6.13;;;;;;;;;;5074442;28;20029;-58
2021/12/14 06:19:57;;;;;;;7.45;5.40;;;;;;;;;;5086745;28;20051;-58
2021/12/14 06:22:22;;;;;;;7.57;5.53;;;;;;;;;;5068976;28;20050;-58
2021/12/14 06:24:53;;;;;;;8.25;5.03;;;;;;;;;;5063863;28;20115;-58
2021/12/14 06:27:19;;;;;;;7.93;5.20;;;;;;;;;;5074313;28;20048;-58
2021/12/14 06:29:45;;;;;;;12.98;5.90;;;;;;;;;;5068050;28;20033;-57
2021/12/14 06:32:13;;;;;;;10.95;4.50;;;;;;;;;;5053915;28;20139;-57
2021/12/14 06:34:44;;;;;;;5.60;4.22;;;;;;;;;;5054915;28;20028;-57
2021/12/14 06:37:52;;;;;;;6.05;4.72;;;;;;;;;;5074600;28;20037;-57
2021/12/14 06:40:19;;;;;;;5.28;4.07;;;;;;;;;;5074324;28;20040;-57
2021/12/14 06:42:49;;;;;;;5.80;4.00;;;;;;;;;;5073980;28;20036;-57
2021/12/14 06:45:19;;;;;;;6.05;4.20;;;;;;;;;;5076253;28;20028;-58
2021/12/14 06:47:47;;;;;;;6.95;4.25;;;;;;;;;;5073907;28;20028;-59
2021/12/14 06:50:14;;;;;;;11.15;3.70;;;;;;;;;;5077148;28;20029;-57
2021/12/14 06:52:40;;;;;;;6.05;4.03;;;;;;;;;;5082008;28;20580;-57
2021/12/14 06:55:06;;;;;;;5.70;2.92;;;;;;;;;;5082974;28;20036;-58
2021/12/14 06:57:31;;;;;;;7.60;3.38;;;;;;;;;;5081854;28;20107;-58
2021/12/14 06:59:57;;;;;;;6.55;3.58;;;;;;;;;;5083281;28;20028;-57
2021/12/14 07:02:24;;;;;;;4.60;3.80;;;;;;;;;;5080978;28;20085;-59
2021/12/14 07:04:51;;;;;;;7.18;4.30;;;;;;;;;;5074474;28;20040;-58
2021/12/14 07:07:18;;;;;;;5.93;3.38;;;;;;;;;;5079428;28;20019;-58
2021/12/14 07:09:48;;;;;;;5.72;3.50;;;;;;;;;;5084135;28;20044;-58
2021/12/14 07:12:13;;;;;;;4.88;4.18;;;;;;;;;;5080228;28;20373;-58
2021/12/14 07:14:40;;;;;;;8.13;4.03;;;;;;;;;;5090469;28;20111;-58
2021/12/14 07:17:15;;;;;;;4.35;3.90;;;;;;;;;;5093650;28;20960;-58
2021/12/14 07:20:03;;;;;;;6.10;4.32;;;;;;;;;;5089069;28;20032;-59
2021/12/14 07:22:37;;;;;;;6.90;4.53;;;;;;;;;;5080251;28;20457;-59
2021/12/14 07:25:06;;;;;;;5.85;4.72;;;;;;;;;;5076582;28;21055;-58
2021/12/14 07:27:42;;;;;;;10.00;4.25;;;;;;;;;;5074796;28;20166;-59
2021/12/14 07:30:19;;;;;;;5.80;4.38;;;;;;;;;;5071007;28;20063;-58
2021/12/14 07:32:44;;;;;;;8.38;4.72;;;;;;;;;;5071209;28;20554;-59
2021/12/14 07:35:21;;;;;;;7.93;4.60;;;;;;;;;;5070612;28;20098;-58
2021/12/14 07:37:47;;;;;;;5.32;4.18;;;;;;;;;;5070779;28;20039;-58
2021/12/14 07:40:13;;;;;;;6.22;4.97;;;;;;;;;;5072044;28;20024;-58
2021/12/14 07:42:38;;;;;;;5.82;4.93;;;;;;;;;;5070960;28;20029;-59
2021/12/14 07:45:04;;;;;;;5.97;4.72;;;;;;;;;;5071173;28;20032;-58
2021/12/14 07:47:29;;;;;;;6.32;5.13;;;;;;;;;;5070872;28;20467;-57
2021/12/14 07:49:55;;;;;;;6.68;4.80;;;;;;;;;;5070158;28;20028;-57
2021/12/14 07:52:26;;;;;;;6.10;5.10;;;;;;;;;;5071689;28;20027;-57
2021/12/14 07:54:51;;;;;;;5.10;4.18;;;;;;;;;;5084765;28;20032;-58
2021/12/14 07:57:19;;;;;;;7.22;4.95;;;;;;;;;;5090839;28;20135;-58
2021/12/14 07:59:46;;;;;;;6.97;4.53;;;;;;;;;;5091396;28;20036;-57
2021/12/14 08:02:21;;;;;;;7.30;4.88;;;;;;;;;;5084384;28;20081;-58
2021/12/14 08:04:49;;;;;;;5.97;5.03;;;;;;;;;;5070456;28;20102;-57
2021/12/14 08:07:26;;;;;;;8.85;5.20;;;;;;;;;;5071181;28;20392;-58
2021/12/14 08:09:53;;;;;;;6.60;5.53;;;;;;;;;;5070649;28;20033;-58
2021/12/14 08:12:26;;;;;;;7.72;5.30;;;;;;;;;;5070981;28;20032;-58
2021/12/14 08:14:59;;;;;;;8.60;5.55;;;;;;;;;;5070396;28;20041;-58
2021/12/14 08:17:25;;;;;;;8.70;4.53;;;;;;;;;;5074872;28;20044;-58
2021/12/14 08:19:51;;;;;;;7.68;5.05;;;;;;;;;;5086888;28;20036;-57
2021/12/14 08:22:36;;;;;;;7.60;5.80;;;;;;;;;;5072546;28;20385;-58
2021/12/14 08:25:03;;;;;;;11.07;6.25;;;;;;;;;;5070680;28;20025;-58
2021/12/14 08:27:29;;;;;;;7.57;5.53;;;;;;;;;;5073693;28;20040;-58
2021/12/14 08:29:56;;;;;;;7.68;5.78;;;;;;;;;;5102582;28;20040;-59
2021/12/14 08:32:23;;;;;;;6.90;5.47;;;;;;;;;;5070690;28;20040;-59
2021/12/14 08:34:49;;;;;;;5.28;4.60;;;;;;;;;;5070347;28;20502;-57
2021/12/14 08:37:17;;;;;;;6.55;4.75;;;;;;;;;;5070676;28;20049;-59
2021/12/14 08:39:48;;;;;;;7.25;5.85;;;;;;;;;;5070498;28;20395;-57
2021/12/14 08:42:37;;;;;;;7.32;5.40;;;;;;;;;;5070351;28;20181;-57
2021/12/14 08:45:24;;;;;;;7.47;5.90;;;;;;;;;;5065809;28;20108;-57
2021/12/14 08:47:51;;;;;;;8.27;6.22;;;;;;;;;;5071589;28;20036;-56
2021/12/14 08:50:16;;;;;;;7.32;5.50;;;;;;;;;;5072224;28;20032;-57
2021/12/14 08:52:42;;;;;;;6.25;5.22;;;;;;;;;;5103754;28;20028;-57
2021/12/14 08:55:09;;;;;;;8.68;5.60;;;;;;;;;;5068989;28;20055;-58
2021/12/14 08:57:35;;;;;;;7.07;5.30;;;;;;;;;;5070152;28;20496;-58
2021/12/14 09:00:06;;;;;;;5.82;4.38;;;;;;;;;;5070040;28;20036;-58
2021/12/14 09:02:31;;;;;;;10.35;5.30;;;;;;;;;;5069962;28;20504;-59
2021/12/14 09:05:15;;;;;;;6.53;5.15;;;;;;;;;;5070129;28;20037;-58
2021/12/14 09:07:42;;;;;;;8.07;5.50;;;;;;;;;;5070688;28;20461;-58
2021/12/14 09:10:10;;;;;;;9.10;5.38;;;;;;;;;;5070455;28;20442;-58
2021/12/14 09:12:39;;;;;;;8.68;6.13;;;;;;;;;;5070105;28;20043;-58
2021/12/14 09:15:08;;;;;;;9.50;6.10;;;;;;;;;;5070433;28;20075;-58
2021/12/14 09:17:33;;;;;;;9.90;5.70;;;;;;;;;;5067052;28;20028;-58
2021/12/14 09:20:04;;;;;;;8.88;5.72;;;;;;;;;;5071018;28;20373;-57
2021/12/14 09:22:29;;;;;;;;;;;;;;;;;;5071400;28;20070;-58
2021/12/14 09:24:55;;;;;;;7.57;5.25;;;;;;;;;;5069630;28;19916;-59
2021/12/14 09:27:22;;;;;;;7.20;4.78;;;;;;;;;;5069672;28;20560;-58
2021/12/14 09:29:48;;;;;;;6.53;5.00;;;;;;;;;;5070372;28;20542;-59
2021/12/14 09:32:18;;;;;;;6.18;4.82;;;;;;;;;;5070175;28;20037;-58
2021/12/14 09:34:43;;;;;;;10.30;5.57;;;;;;;;;;5070222;28;20095;-59
2021/12/14 09:37:11;;;;;;;6.68;5.53;;;;;;;;;;5073991;28;20048;-58
2021/12/14 09:39:39;;;;;;;8.45;5.53;;;;;;;;;;5073245;28;20103;-57
2021/12/14 09:42:07;;;;;;;7.13;5.30;;;;;;;;;;5073475;28;20044;-58
2021/12/14 09:44:33;;;;;;;8.77;5.65;;;;;;;;;;5075867;28;20388;-57
2021/12/14 09:47:05;;;;;;;6.95;5.20;;;;;;;;;;5073778;28;20032;-58
2021/12/14 09:49:31;;;;;;;9.27;6.28;;;;;;;;;;5073171;28;20396;-59
2021/12/14 09:52:02;;;;;;;6.57;4.93;;;;;;;;;;5072649;28;20107;-58
2021/12/14 09:54:28;;;;;;;8.40;5.55;;;;;;;;;;5073290;28;20047;-58
2021/12/14 09:56:57;;;;;;;6.18;4.75;;;;;;;;;;5072820;28;20036;-59
2021/12/14 09:59:22;;;;;;;8.48;5.65;;;;;;;;;;5073057;28;20037;-59
2021/12/14 10:01:52;;;;;;;6.43;4.85;;;;;;;;;;5072325;28;20097;-57
2021/12/14 10:04:20;;;;;;;7.13;5.50;;;;;;;;;;5088775;28;20051;-58
2021/12/14 10:06:45;;;;;;;8.25;6.60;;;;;;;;;;5072449;28;20033;-59
2021/12/14 10:09:13;;;;;;;8.38;6.20;;;;;;;;;;5075571;28;20509;-58
2021/12/14 10:12:00;;;;;;;7.10;5.40;;;;;;;;;;5073329;28;20032;-58
2021/12/14 10:14:35;;;;;;;8.18;6.07;;;;;;;;;;5076757;28;20102;-58
2021/12/14 10:17:00;;;;;;;8.57;6.05;;;;;;;;;;5071491;28;20036;-59
2021/12/14 10:19:29;;;;;;;8.30;4.97;;;;;;;;;;5072662;28;20044;-58
2021/12/14 10:21:56;;;;;;;6.90;4.90;;;;;;;;;;5090424;28;20059;-59
2021/12/14 10:24:21;;;;;;;7.78;5.57;;;;;;;;;;5077582;28;20441;-59
2021/12/14 10:26:49;;;;;;;9.63;6.20;;;;;;;;;;5072074;28;20108;-59
2021/12/14 10:29:15;;;;;;;8.88;5.95;;;;;;;;;;5072264;28;20031;-57
2021/12/14 10:31:44;;;;;;;8.52;5.80;;;;;;;;;;5074203;28;20017;-58
2021/12/14 10:34:11;;;;;;;8.95;6.43;;;;;;;;;;5073452;28;20028;-58
2021/12/14 10:36:42;;;;;;;7.10;5.72;;;;;;;;;;5074311;28;20377;-57
2021/12/14 10:44:23;;;;;;;6.00;4.80;;;;;;;;;;5077632;28;20109;-57
2021/12/14 10:46:49;;;;;;;5.82;4.82;;;;;;;;;;5072086;28;20473;-57
2021/12/14 10:49:17;;;;;;;7.72;5.75;;;;;;;;;;5077536;28;20379;-57
2021/12/14 10:51:43;;;;;;;6.32;4.78;;;;;;;;;;5072099;28;20036;-58
2021/12/14 10:54:12;;;;;;;7.03;4.57;;;;;;;;;;5074443;28;20036;-58
2021/12/14 10:56:41;;;;;;;6.35;5.18;;;;;;;;;;5073120;28;20035;-58
2021/12/14 10:59:06;;;;;;;8.98;5.63;;;;;;;;;;5075685;28;20028;-58
2021/12/14 11:01:34;;;;;;;7.10;5.07;;;;;;;;;;5072463;28;20008;-58
2021/12/14 11:04:02;;;;;;;6.80;5.20;;;;;;;;;;5084963;28;20060;-57
2021/12/14 11:06:29;;;;;;;7.65;4.95;;;;;;;;;;5104076;27;20032;-57
2021/12/14 11:11:29;;;;;;;7.05;4.90;;;;;;;;;;5074140;28;20377;-57
2021/12/14 11:14:00;;;;;;;8.02;4.30;;;;;;;;;;5079653;28;20535;-57
2021/12/14 11:19:13;;;;;;;7.22;5.60;;;;;;;;;;5042462;28;20037;-57
2021/12/14 11:21:39;;;;;;;8.90;4.82;;;;;;;;;;5039238;28;20382;-57
2021/12/14 11:24:04;;;;;;;6.78;5.13;;;;;;;;;;5027910;28;20218;-57
2021/12/14 11:26:34;;;;;;;6.43;5.45;;;;;;;;;;5045511;28;20118;-57
2021/12/14 11:29:01;;;;;;;6.45;4.75;;;;;;;;;;5057025;28;20558;-57
2021/12/14 11:31:33;;;;;;;6.03;4.72;;;;;;;;;;5055480;28;20029;-57
2021/12/14 11:34:02;;;;;;;7.93;5.35;;;;;;;;;;5053929;28;20037;-57
2021/12/14 11:36:36;;;;;;;5.18;4.03;;;;;;;;;;5058638;28;20031;-57
2021/12/14 11:39:04;;;;;;;4.38;3.58;;;;;;;;;;5059148;28;20395;-58
2021/12/14 11:41:32;;;;;;;5.10;4.15;;;;;;;;;;5057481;28;20100;-58
2021/12/14 11:44:16;;;;;;;6.53;4.82;;;;;;;;;;5054216;28;20142;-58
2021/12/14 11:46:51;;;;;;;6.60;4.95;;;;;;;;;;5048219;28;20033;-57
2021/12/14 11:49:17;;;;;;;6.20;3.83;;;;;;;;;;5048786;28;20025;-57
2021/12/14 11:51:43;;;;;;;6.53;4.35;;;;;;;;;;5048657;28;20131;-57
2021/12/14 11:54:09;;;;;;;5.22;4.15;;;;;;;;;;5048115;28;20029;-58
2021/12/14 11:56:34;;;;;;;7.32;4.78;;;;;;;;;;5056938;28;20027;-57
2021/12/14 11:59:04;;;;;;;6.75;4.78;;;;;;;;;;5069741;28;20033;-58
2021/12/14 12:01:32;;;;;;;5.57;4.43;;;;;;;;;;5073378;28;20024;-58
2021/12/14 12:03:58;;;;;;;5.13;3.95;;;;;;;;;;5049079;28;20111;-57
2021/12/14 12:09:31;;;;;;;6.05;4.15;;;;;;;;;;5059443;28;20044;-58
2021/12/14 12:12:02;;;;;;;5.70;4.10;;;;;;;;;;5052562;28;20047;-57
2021/12/14 12:14:30;;;;;;;3.80;3.22;;;;;;;;;;5048480;28;20037;-57
2021/12/14 12:17:08;;;;;;;7.13;4.95;;;;;;;;;;5048244;28;20040;-58
2021/12/14 12:19:33;;;;;;;5.90;4.38;;;;;;;;;;5055416;28;20102;-57
2021/12/14 12:22:09;;;;;;;4.95;3.72;;;;;;;;;;5047921;28;20041;-57
2021/12/14 12:24:37;;;;;;;7.25;5.65;;;;;;;;;;5048640;28;20068;-57
2021/12/14 12:27:21;;;;;;;5.35;3.90;;;;;;;;;;5042711;28;20033;-58
2021/12/14 12:29:46;;;;;;;5.05;3.85;;;;;;;;;;5048395;28;20037;-58
2021/12/14 12:32:23;;;;;;;5.43;3.90;;;;;;;;;;5056310;28;20448;-58
2021/12/14 12:34:50;;;;;;;6.05;5.13;;;;;;;;;;5047975;28;20069;-59
2021/12/14 12:37:16;;;;;;;5.93;4.13;;;;;;;;;;5054040;28;20040;-61
2021/12/14 12:39:49;;;;;;;5.22;4.25;;;;;;;;;;5067185;28;20037;-58
2021/12/14 12:42:16;;;;;;;4.47;3.60;;;;;;;;;;5064624;28;20041;-58
2021/12/14 12:44:43;;;;;;;5.53;4.10;;;;;;;;;;5048133;28;20459;-58
2021/12/14 12:47:16;;;;;;;7.63;4.57;;;;;;;;;;5048358;28;20485;-58
2021/12/14 12:49:45;;;;;;;5.72;4.75;;;;;;;;;;5049573;28;20507;-58
2021/12/14 12:52:13;;;;;;;7.05;4.40;;;;;;;;;;5050652;28;20123;-58
2021/12/14 12:54:48;;;;;;;6.28;4.32;;;;;;;;;;5066439;28;20485;-58
2021/12/14 12:57:28;;;;;;;5.30;3.83;;;;;;;;;;5062333;28;20047;-59
2021/12/14 13:00:12;;;;;;;5.75;3.45;;;;;;;;;;5060429;28;20064;-58
2021/12/14 13:02:46;;;;;;;4.60;3.25;;;;;;;;;;5055643;28;20037;-58
2021/12/14 13:05:29;;;;;;;5.53;4.40;;;;;;;;;;5058204;28;20481;-58
2021/12/14 13:08:03;;;;;;;4.88;4.05;;;;;;;;;;5050157;28;20036;-57
2021/12/14 13:10:29;;;;;;;4.90;3.60;;;;;;;;;;5054517;28;20017;-57
2021/12/14 13:12:56;;;;;;;6.22;4.03;;;;;;;;;;5053805;28;20044;-58
2021/12/14 13:15:52;;;;;;;4.25;3.45;;;;;;;;;;5053761;28;20123;-58
2021/12/14 13:18:17;;;;;;;4.50;3.88;;;;;;;;;;5017244;28;20117;-57
2021/12/14 13:20:43;;;;;;;3.93;3.17;;;;;;;;;;5023596;28;20466;-58
2021/12/14 13:23:09;;;;;;;3.97;3.17;;;;;;;;;;5031906;28;20439;-58
2021/12/14 13:25:39;;;;;;;4.78;3.13;;;;;;;;;;5031848;28;20069;-58
2021/12/14 13:28:04;;;;;;;5.03;3.53;;;;;;;;;;5050258;28;20409;-58
2021/12/14 13:30:30;;;;;;;5.57;3.17;;;;;;;;;;5062916;28;20036;-58
2021/12/14 13:32:55;;;;;;;5.95;3.30;;;;;;;;;;5054646;28;20043;-58
2021/12/14 13:35:22;;;;;;;4.85;3.75;;;;;;;;;;5071015;28;20025;-57
2021/12/14 13:37:50;;;;;;;4.22;3.65;;;;;;;;;;5071146;28;20507;-58
2021/12/14 13:40:20;;;;;;;4.93;3.88;;;;;;;;;;5068586;28;20615;-57
2021/12/14 13:42:51;;;;;;;4.93;3.63;;;;;;;;;;5056102;28;20052;-57
2021/12/14 13:45:18;;;;;;;6.90;3.65;;;;;;;;;;5051642;28;20029;-57
2021/12/14 13:47:45;;;;;;;4.55;3.22;;;;;;;;;;5050543;28;20489;-57
2021/12/14 13:50:14;;;;;;;3.83;3.40;;;;;;;;;;5050288;28;20164;-58
2021/12/14 13:52:39;;;;;;;4.30;3.15;;;;;;;;;;5051752;28;20033;-57
2021/12/14 13:55:14;;;;;;;3.70;2.92;;;;;;;;;;5057662;28;20031;-58
2021/12/14 13:57:41;;;;;;;4.70;3.40;;;;;;;;;;5074043;27;22260;-57
2021/12/14 14:00:08;;;;;;;5.28;3.67;;;;;;;;;;5063714;28;20381;-58
2021/12/14 14:02:33;;;;;;;5.20;3.90;;;;;;;;;;5068481;28;20029;-58
2021/12/14 14:04:58;;;;;;;4.40;3.47;;;;;;;;;;5052379;28;20082;-58
2021/12/14 14:07:23;;;;;;;5.03;3.80;;;;;;;;;;5052609;28;20089;-58
2021/12/14 14:09:49;;;;;;;6.30;4.43;;;;;;;;;;5052484;28;20052;-59
2021/12/14 14:12:17;;;;;;;5.80;3.92;;;;;;;;;;5057085;28;20044;-58
2021/12/14 14:14:43;;;;;;;4.95;3.35;;;;;;;;;;5053886;28;20033;-57
2021/12/14 14:17:11;;;;;;;3.65;2.67;;;;;;;;;;5058897;28;20080;-57
2021/12/14 14:19:44;;;;;;;3.67;2.83;;;;;;;;;;5053498;28;20097;-58
2021/12/14 14:22:12;;;;;;;3.20;2.90;;;;;;;;;;5069250;28;20028;-57
2021/12/14 14:24:40;;;;;;;4.20;3.03;;;;;;;;;;5072489;28;20525;-57
2021/12/14 14:27:07;;;;;;;5.03;3.30;;;;;;;;;;5072567;28;20514;-57
2021/12/14 14:29:40;;;;;;;4.25;3.22;;;;;;;;;;5071731;28;20086;-56
2021/12/14 14:32:11;;;;;;;6.90;3.90;;;;;;;;;;5072516;28;20365;-58
2021/12/14 14:34:45;;;;;;;4.18;3.28;;;;;;;;;;5073646;28;20082;-58
2021/12/14 14:37:15;;;;;;;5.53;3.70;;;;;;;;;;5071576;28;20441;-57
2021/12/14 14:39:41;;;;;;;4.97;3.83;;;;;;;;;;5099943;27;20050;-57
2021/12/14 14:42:25;;;;;;;4.05;3.22;;;;;;;;;;5059044;28;20493;-57
2021/12/14 14:44:52;;;;;;;4.20;3.13;;;;;;;;;;5054339;28;20052;-58
2021/12/14 14:47:20;;;;;;;4.65;3.75;;;;;;;;;;5054882;28;20029;-57
2021/12/14 14:49:45;;;;;;;4.13;3.15;;;;;;;;;;5054119;28;20037;-57
2021/12/14 14:52:25;;;;;;;4.55;3.42;;;;;;;;;;5054052;28;20043;-61
2021/12/14 14:55:06;;;;;;;5.80;4.00;;;;;;;;;;5053300;28;20032;-58
2021/12/14 14:57:33;;;;;;;4.78;3.80;;;;;;;;;;5051206;28;20041;-60
2021/12/14 14:59:58;;;;;;;4.60;3.42;;;;;;;;;;5052173;28;20496;-58
2021/12/14 15:02:38;;;;;;;5.70;3.80;;;;;;;;;;5050406;28;20036;-58
2021/12/14 15:05:04;;;;;;;6.13;3.50;;;;;;;;;;5045975;28;20426;-58
2021/12/14 15:07:48;;;;;;;5.32;4.38;;;;;;;;;;5050016;28;20473;-58
2021/12/14 15:10:14;;;;;;;6.05;4.13;;;;;;;;;;5068233;28;20071;-58
2021/12/14 15:12:40;;;;;;;8.93;4.40;;;;;;;;;;5069492;28;20089;-58
2021/12/14 15:15:12;;;;;;;4.70;3.47;;;;;;;;;;5071388;28;20032;-58
2021/12/14 15:17:44;;;;;;;3.90;3.38;;;;;;;;;;5067840;28;20036;-58
2021/12/14 15:20:25;;;;;;;9.07;3.70;;;;;;;;;;5069015;28;20044;-57
2021/12/14 15:22:58;;;;;;;4.63;3.13;;;;;;;;;;5071329;28;20098;-58
2021/12/14 15:25:27;;;;;;;7.00;4.03;;;;;;;;;;5069061;28;20024;-58
2021/12/14 15:27:55;;;;;;;7.43;4.00;;;;;;;;;;5069836;28;20492;-58
2021/12/14 15:30:25;;;;;;;5.90;3.85;;;;;;;;;;5070200;28;20033;-58